sensor_id;sensor_type;location;lat;lon;timestamp;pressure;altitude;pressure_sealevel;temperature;humidity
47522;BME280;32291;52.010;4.446;2022-11-23T00:00:25;77497.59;;;-144.67;100.00
47522;BME280;32291;52.010;4.446;2022-11-23T00:01:32;77499.75;;;-144.67;100.00
47522;BME280;32291;52.010;4.446;2022-11-23T00:02:35;77512.59;;;-144.67;100.00
47522;BME280;32291;52.010;4.446;2022-11-23T00:03:37;77508.31;;;-144.67;100.00
47522;BME280;32291;52.010;4.446;2022-11-23T00:04:39;77504.03;;;-144.67;100.00
47522;BME280;32291;52.010;4.446;2022-11-23T00:05:41;77504.03;;;-144.67;100.00
47522;BME280;32291;52.010;4.446;2022-11-23T00:06:43;77489.03;;;-144.67;100.00
47522;BME280;32291;52.010;4.446;2022-11-23T00:07:46;77493.31;;;-144.67;100.00
47522;BME280;32291;52.010;4.446;2022-11-23T00:08:49;77489.03;;;-144.67;100.00
47522;BME280;32291;52.010;4.446;2022-11-23T00:09:52;77469.78;;;-144.67;100.00
47522;BME280;32291;52.010;4.446;2022-11-23T00:10:58;77476.19;;;-144.67;100.00
47522;BME280;32291;52.010;4.446;2022-11-23T00:12:00;77474.06;;;-144.67;100.00
47522;BME280;32291;52.010;4.446;2022-11-23T00:13:02;77474.06;;;-144.67;100.00
47522;BME280;32291;52.010;4.446;2022-11-23T00:14:05;77463.34;;;-144.67;100.00
47522;BME280;32291;52.010;4.446;2022-11-23T00:15:07;77452.66;;;-144.67;100.00
47522;BME280;32291;52.010;4.446;2022-11-23T00:16:20;77456.94;;;-144.67;100.00
47522;BME280;32291;52.010;4.446;2022-11-23T00:17:26;77456.94;;;-144.67;100.00
47522;BME280;32291;52.010;4.446;2022-11-23T00:18:28;77452.66;;;-144.67;100.00
47522;BME280;32291;52.010;4.446;2022-11-23T00:19:30;77448.38;;;-144.67;100.00
47522;BME280;32291;52.010;4.446;2022-11-23T00:20:32;77450.50;;;-144.67;100.00
47522;BME280;32291;52.010;4.446;2022-11-23T00:21:34;77435.53;;;-144.67;100.00
47522;BME280;32291;52.010;4.446;2022-11-23T00:22:36;77441.94;;;-144.67;100.00
47522;BME280;32291;52.010;4.446;2022-11-23T00:23:44;77444.09;;;-144.67;100.00
47522;BME280;32291;52.010;4.446;2022-11-23T00:24:46;77441.94;;;-144.67;100.00
47522;BME280;32291;52.010;4.446;2022-11-23T00:25:48;77437.66;;;-144.67;100.00
47522;BME280;32291;52.010;4.446;2022-11-23T00:26:50;77433.38;;;-144.67;100.00
47522;BME280;32291;52.010;4.446;2022-11-23T00:27:52;77431.25;;;-144.67;100.00
47522;BME280;32291;52.010;4.446;2022-11-23T00:28:54;77431.25;;;-144.67;100.00
47522;BME280;32291;52.010;4.446;2022-11-23T00:29:56;77435.53;;;-144.67;100.00
47522;BME280;32291;52.010;4.446;2022-11-23T00:30:58;77431.25;;;-144.67;100.00
47522;BME280;32291;52.010;4.446;2022-11-23T00:32:00;77437.66;;;-144.67;100.00
47522;BME280;32291;52.010;4.446;2022-11-23T00:33:02;77437.66;;;-144.67;100.00
47522;BME280;32291;52.010;4.446;2022-11-23T00:34:04;77437.66;;;-144.67;100.00
47522;BME280;32291;52.010;4.446;2022-11-23T00:35:06;77437.66;;;-144.67;100.00
47522;BME280;32291;52.010;4.446;2022-11-23T00:36:14;77441.94;;;-144.67;100.00
47522;BME280;32291;52.010;4.446;2022-11-23T00:37:17;77439.81;;;-144.67;100.00
47522;BME280;32291;52.010;4.446;2022-11-23T00:38:19;77439.81;;;-144.67;100.00
47522;BME280;32291;52.010;4.446;2022-11-23T00:39:21;77439.81;;;-144.67;100.00
47522;BME280;32291;52.010;4.446;2022-11-23T00:40:23;77441.94;;;-144.67;100.00
47522;BME280;32291;52.010;4.446;2022-11-23T00:41:26;77439.81;;;-144.67;100.00
47522;BME280;32291;52.010;4.446;2022-11-23T00:42:29;77431.25;;;-144.67;100.00
47522;BME280;32291;52.010;4.446;2022-11-23T00:43:31;77431.25;;;-144.67;100.00
47522;BME280;32291;52.010;4.446;2022-11-23T00:44:34;77435.53;;;-144.67;100.00
47522;BME280;32291;52.010;4.446;2022-11-23T00:45:36;77437.66;;;-144.67;100.00
47522;BME280;32291;52.010;4.446;2022-11-23T00:46:38;77433.38;;;-144.67;100.00
47522;BME280;32291;52.010;4.446;2022-11-23T00:47:40;77444.09;;;-144.67;100.00
47522;BME280;32291;52.010;4.446;2022-11-23T00:48:43;77439.81;;;-144.67;100.00
47522;BME280;32291;52.010;4.446;2022-11-23T00:49:47;77448.38;;;-144.67;100.00
47522;BME280;32291;52.010;4.446;2022-11-23T00:50:49;77446.22;;;-144.67;100.00
47522;BME280;32291;52.010;4.446;2022-11-23T00:51:51;77444.09;;;-144.67;100.00
47522;BME280;32291;52.010;4.446;2022-11-23T00:52:53;77444.09;;;-144.67;100.00
47522;BME280;32291;52.010;4.446;2022-11-23T00:53:56;77448.38;;;-144.67;100.00
47522;BME280;32291;52.010;4.446;2022-11-23T00:55:00;77448.38;;;-144.67;100.00
47522;BME280;32291;52.010;4.446;2022-11-23T00:56:02;77435.53;;;-144.67;100.00
47522;BME280;32291;52.010;4.446;2022-11-23T00:57:04;77435.53;;;-144.67;100.00
47522;BME280;32291;52.010;4.446;2022-11-23T00:58:06;77435.53;;;-144.67;100.00
47522;BME280;32291;52.010;4.446;2022-11-23T00:59:09;77439.81;;;-144.67;100.00
47522;BME280;32291;52.010;4.446;2022-11-23T01:00:11;77441.94;;;-144.67;100.00
47522;BME280;32291;52.010;4.446;2022-11-23T01:01:15;77435.53;;;-144.67;100.00
47522;BME280;32291;52.010;4.446;2022-11-23T01:02:19;77433.38;;;-144.67;100.00
47522;BME280;32291;52.010;4.446;2022-11-23T01:03:21;77431.25;;;-144.67;100.00
47522;BME280;32291;52.010;4.446;2022-11-23T01:04:23;77444.09;;;-144.67;100.00
47522;BME280;32291;52.010;4.446;2022-11-23T01:05:25;77448.38;;;-144.67;100.00
47522;BME280;32291;52.010;4.446;2022-11-23T01:06:33;77439.81;;;-144.67;100.00
47522;BME280;32291;52.010;4.446;2022-11-23T01:07:36;77439.81;;;-144.67;100.00
47522;BME280;32291;52.010;4.446;2022-11-23T01:08:39;77439.81;;;-144.67;100.00
47522;BME280;32291;52.010;4.446;2022-11-23T01:09:42;77441.94;;;-144.67;100.00
47522;BME280;32291;52.010;4.446;2022-11-23T01:10:44;77448.38;;;-144.67;100.00
47522;BME280;32291;52.010;4.446;2022-11-23T01:11:47;77441.94;;;-144.67;100.00
47522;BME280;32291;52.010;4.446;2022-11-23T01:12:49;77446.22;;;-144.67;100.00
47522;BME280;32291;52.010;4.446;2022-11-23T01:13:51;77448.38;;;-144.67;100.00
47522;BME280;32291;52.010;4.446;2022-11-23T01:14:53;77439.81;;;-144.67;100.00
47522;BME280;32291;52.010;4.446;2022-11-23T01:15:56;77444.09;;;-144.67;100.00
47522;BME280;32291;52.010;4.446;2022-11-23T01:16:58;77444.09;;;-144.67;100.00
47522;BME280;32291;52.010;4.446;2022-11-23T01:18:01;77444.09;;;-144.67;100.00
47522;BME280;32291;52.010;4.446;2022-11-23T01:19:06;77437.66;;;-144.67;100.00
47522;BME280;32291;52.010;4.446;2022-11-23T01:20:11;77446.22;;;-144.67;100.00
47522;BME280;32291;52.010;4.446;2022-11-23T01:21:13;77450.50;;;-144.67;100.00
47522;BME280;32291;52.010;4.446;2022-11-23T01:22:15;77444.09;;;-144.67;100.00
47522;BME280;32291;52.010;4.446;2022-11-23T01:23:17;77452.66;;;-144.67;100.00
47522;BME280;32291;52.010;4.446;2022-11-23T01:24:21;77448.38;;;-144.67;100.00
47522;BME280;32291;52.010;4.446;2022-11-23T01:25:24;77450.50;;;-144.67;100.00
47522;BME280;32291;52.010;4.446;2022-11-23T01:26:25;77448.38;;;-144.67;100.00
47522;BME280;32291;52.010;4.446;2022-11-23T01:27:27;77448.38;;;-144.67;100.00
47522;BME280;32291;52.010;4.446;2022-11-23T01:28:29;77444.09;;;-144.67;100.00
47522;BME280;32291;52.010;4.446;2022-11-23T01:29:31;77448.38;;;-144.67;100.00
47522;BME280;32291;52.010;4.446;2022-11-23T01:30:34;77448.38;;;-144.67;100.00
47522;BME280;32291;52.010;4.446;2022-11-23T01:31:38;77448.38;;;-144.67;100.00
47522;BME280;32291;52.010;4.446;2022-11-23T01:32:41;77452.66;;;-144.67;100.00
47522;BME280;32291;52.010;4.446;2022-11-23T01:33:44;77461.22;;;-144.67;100.00
47522;BME280;32291;52.010;4.446;2022-11-23T01:34:47;77456.94;;;-144.67;100.00
47522;BME280;32291;52.010;4.446;2022-11-23T01:35:48;77454.78;;;-144.67;100.00
47522;BME280;32291;52.010;4.446;2022-11-23T01:36:50;77459.06;;;-144.67;100.00
47522;BME280;32291;52.010;4.446;2022-11-23T01:37:52;77461.22;;;-144.67;100.00
47522;BME280;32291;52.010;4.446;2022-11-23T01:38:55;77465.50;;;-144.67;100.00
47522;BME280;32291;52.010;4.446;2022-11-23T01:39:57;77450.50;;;-144.67;100.00
47522;BME280;32291;52.010;4.446;2022-11-23T01:41:00;77448.38;;;-144.67;100.00
47522;BME280;32291;52.010;4.446;2022-11-23T01:42:02;77454.78;;;-144.67;100.00
47522;BME280;32291;52.010;4.446;2022-11-23T01:43:16;77461.22;;;-144.67;100.00
47522;BME280;32291;52.010;4.446;2022-11-23T01:46:42;77456.94;;;-144.67;100.00
47522;BME280;32291;52.010;4.446;2022-11-23T01:47:44;77456.94;;;-144.67;100.00
47522;BME280;32291;52.010;4.446;2022-11-23T01:48:54;77456.94;;;-144.67;100.00
47522;BME280;32291;52.010;4.446;2022-11-23T01:49:59;77454.78;;;-144.67;100.00
47522;BME280;32291;52.010;4.446;2022-11-23T01:51:05;77465.50;;;-144.67;100.00
47522;BME280;32291;52.010;4.446;2022-11-23T01:52:20;77459.06;;;-144.67;100.00
47522;BME280;32291;52.010;4.446;2022-11-23T01:53:27;77456.94;;;-144.67;100.00
47522;BME280;32291;52.010;4.446;2022-11-23T01:54:38;77456.94;;;-144.67;100.00
47522;BME280;32291;52.010;4.446;2022-11-23T01:55:47;77459.06;;;-144.67;100.00
47522;BME280;32291;52.010;4.446;2022-11-23T01:57:00;77463.34;;;-144.67;100.00
47522;BME280;32291;52.010;4.446;2022-11-23T01:58:08;77459.06;;;-144.67;100.00
47522;BME280;32291;52.010;4.446;2022-11-23T01:59:17;77456.94;;;-144.67;100.00
47522;BME280;32291;52.010;4.446;2022-11-23T02:00:21;77463.34;;;-144.67;100.00
47522;BME280;32291;52.010;4.446;2022-11-23T02:01:23;77465.50;;;-144.67;100.00
47522;BME280;32291;52.010;4.446;2022-11-23T02:02:28;77461.22;;;-144.67;100.00
47522;BME280;32291;52.010;4.446;2022-11-23T02:03:36;77465.50;;;-144.67;100.00
47522;BME280;32291;52.010;4.446;2022-11-23T02:04:42;77465.50;;;-144.67;100.00
47522;BME280;32291;52.010;4.446;2022-11-23T02:05:52;77467.63;;;-144.67;100.00
47522;BME280;32291;52.010;4.446;2022-11-23T02:07:02;77474.06;;;-144.67;100.00
47522;BME280;32291;52.010;4.446;2022-11-23T02:08:06;77474.06;;;-144.67;100.00
47522;BME280;32291;52.010;4.446;2022-11-23T02:09:10;77486.91;;;-144.67;100.00
47522;BME280;32291;52.010;4.446;2022-11-23T02:10:12;77484.75;;;-144.67;100.00
47522;BME280;32291;52.010;4.446;2022-11-23T02:11:15;77476.19;;;-144.67;100.00
47522;BME280;32291;52.010;4.446;2022-11-23T02:12:18;77486.91;;;-144.67;100.00
47522;BME280;32291;52.010;4.446;2022-11-23T02:13:23;77486.91;;;-144.67;100.00
47522;BME280;32291;52.010;4.446;2022-11-23T02:14:27;77486.91;;;-144.67;100.00
47522;BME280;32291;52.010;4.446;2022-11-23T02:15:31;77486.91;;;-144.67;100.00
47522;BME280;32291;52.010;4.446;2022-11-23T02:16:36;77482.63;;;-144.67;100.00
47522;BME280;32291;52.010;4.446;2022-11-23T02:17:39;77482.63;;;-144.67;100.00
47522;BME280;32291;52.010;4.446;2022-11-23T02:18:45;77491.19;;;-144.67;100.00
47522;BME280;32291;52.010;4.446;2022-11-23T02:20:12;77491.19;;;-144.67;100.00
47522;BME280;32291;52.010;4.446;2022-11-23T02:21:16;77491.19;;;-144.67;100.00
47522;BME280;32291;52.010;4.446;2022-11-23T02:22:42;77495.47;;;-144.67;100.00
47522;BME280;32291;52.010;4.446;2022-11-23T02:24:29;77495.47;;;-144.67;100.00
47522;BME280;32291;52.010;4.446;2022-11-23T02:26:48;77495.47;;;-144.67;100.00
47522;BME280;32291;52.010;4.446;2022-11-23T02:27:52;77504.03;;;-144.67;100.00
47522;BME280;32291;52.010;4.446;2022-11-23T02:29:11;77499.75;;;-144.67;100.00
47522;BME280;32291;52.010;4.446;2022-11-23T02:30:22;77508.31;;;-144.67;100.00
47522;BME280;32291;52.010;4.446;2022-11-23T02:31:25;77508.31;;;-144.67;100.00
47522;BME280;32291;52.010;4.446;2022-11-23T02:32:28;77508.31;;;-144.67;100.00
47522;BME280;32291;52.010;4.446;2022-11-23T02:33:31;77499.75;;;-144.67;100.00
47522;BME280;32291;52.010;4.446;2022-11-23T02:34:33;77508.31;;;-144.67;100.00
47522;BME280;32291;52.010;4.446;2022-11-23T02:35:47;77512.59;;;-144.67;100.00
47522;BME280;32291;52.010;4.446;2022-11-23T02:36:56;77516.88;;;-144.67;100.00
47522;BME280;32291;52.010;4.446;2022-11-23T02:38:01;77519.00;;;-144.67;100.00
47522;BME280;32291;52.010;4.446;2022-11-23T02:40:35;77516.88;;;-144.67;100.00
47522;BME280;32291;52.010;4.446;2022-11-23T02:41:51;77512.59;;;-144.67;100.00
47522;BME280;32291;52.010;4.446;2022-11-23T02:42:54;77516.88;;;-144.67;100.00
47522;BME280;32291;52.010;4.446;2022-11-23T02:43:56;77512.59;;;-144.67;100.00
47522;BME280;32291;52.010;4.446;2022-11-23T02:45:24;77519.00;;;-144.67;100.00
47522;BME280;32291;52.010;4.446;2022-11-23T02:46:34;77516.88;;;-144.67;100.00
47522;BME280;32291;52.010;4.446;2022-11-23T02:47:37;77527.56;;;-144.67;100.00
47522;BME280;32291;52.010;4.446;2022-11-23T02:48:39;77525.44;;;-144.67;100.00
47522;BME280;32291;52.010;4.446;2022-11-23T02:49:45;77523.28;;;-144.67;100.00
47522;BME280;32291;52.010;4.446;2022-11-23T02:50:48;77514.72;;;-144.67;100.00
47522;BME280;32291;52.010;4.446;2022-11-23T02:51:51;77525.44;;;-144.67;100.00
47522;BME280;32291;52.010;4.446;2022-11-23T02:52:54;77523.28;;;-144.67;100.00
47522;BME280;32291;52.010;4.446;2022-11-23T02:53:56;77516.88;;;-144.67;100.00
47522;BME280;32291;52.010;4.446;2022-11-23T02:54:58;77521.16;;;-144.67;100.00
47522;BME280;32291;52.010;4.446;2022-11-23T02:56:00;77523.28;;;-144.67;100.00
47522;BME280;32291;52.010;4.446;2022-11-23T02:57:03;77529.72;;;-144.67;100.00
47522;BME280;32291;52.010;4.446;2022-11-23T02:58:06;77531.84;;;-144.67;100.00
47522;BME280;32291;52.010;4.446;2022-11-23T02:59:08;77525.44;;;-144.67;100.00
47522;BME280;32291;52.010;4.446;2022-11-23T03:00:11;77531.84;;;-144.67;100.00
47522;BME280;32291;52.010;4.446;2022-11-23T03:01:15;77534.00;;;-144.67;100.00
47522;BME280;32291;52.010;4.446;2022-11-23T03:02:16;77525.44;;;-144.67;100.00
47522;BME280;32291;52.010;4.446;2022-11-23T03:03:18;77529.72;;;-144.67;100.00
47522;BME280;32291;52.010;4.446;2022-11-23T03:04:20;77529.72;;;-144.67;100.00
47522;BME280;32291;52.010;4.446;2022-11-23T03:05:23;77534.00;;;-144.67;100.00
47522;BME280;32291;52.010;4.446;2022-11-23T03:06:25;77534.00;;;-144.67;100.00
47522;BME280;32291;52.010;4.446;2022-11-23T03:07:27;77527.56;;;-144.67;100.00
47522;BME280;32291;52.010;4.446;2022-11-23T03:08:29;77523.28;;;-144.67;100.00
47522;BME280;32291;52.010;4.446;2022-11-23T03:09:32;77525.44;;;-144.67;100.00
47522;BME280;32291;52.010;4.446;2022-11-23T03:10:34;77521.16;;;-144.67;100.00
47522;BME280;32291;52.010;4.446;2022-11-23T03:11:36;77519.00;;;-144.67;100.00
47522;BME280;32291;52.010;4.446;2022-11-23T03:12:38;77519.00;;;-144.67;100.00
47522;BME280;32291;52.010;4.446;2022-11-23T03:13:40;77514.72;;;-144.67;100.00
47522;BME280;32291;52.010;4.446;2022-11-23T03:14:42;77516.88;;;-144.67;100.00
47522;BME280;32291;52.010;4.446;2022-11-23T03:15:44;77504.03;;;-144.67;100.00
47522;BME280;32291;52.010;4.446;2022-11-23T03:16:46;77512.59;;;-144.67;100.00
47522;BME280;32291;52.010;4.446;2022-11-23T03:17:47;77510.44;;;-144.67;100.00
47522;BME280;32291;52.010;4.446;2022-11-23T03:18:50;77499.75;;;-144.67;100.00
47522;BME280;32291;52.010;4.446;2022-11-23T03:19:53;77504.03;;;-144.67;100.00
47522;BME280;32291;52.010;4.446;2022-11-23T03:21:00;77499.75;;;-144.67;100.00
47522;BME280;32291;52.010;4.446;2022-11-23T03:22:09;77491.19;;;-144.67;100.00
47522;BME280;32291;52.010;4.446;2022-11-23T03:23:11;77501.88;;;-144.67;100.00
47522;BME280;32291;52.010;4.446;2022-11-23T03:24:16;77493.31;;;-144.67;100.00
47522;BME280;32291;52.010;4.446;2022-11-23T03:25:18;77495.47;;;-144.67;100.00
47522;BME280;32291;52.010;4.446;2022-11-23T03:26:20;77491.19;;;-144.67;100.00
47522;BME280;32291;52.010;4.446;2022-11-23T03:27:23;77486.91;;;-144.67;100.00
47522;BME280;32291;52.010;4.446;2022-11-23T03:28:26;77486.91;;;-144.67;100.00
47522;BME280;32291;52.010;4.446;2022-11-23T03:29:28;77493.31;;;-144.67;100.00
47522;BME280;32291;52.010;4.446;2022-11-23T03:30:31;77491.19;;;-144.67;100.00
47522;BME280;32291;52.010;4.446;2022-11-23T03:31:33;77486.91;;;-144.67;100.00
47522;BME280;32291;52.010;4.446;2022-11-23T03:32:36;77482.63;;;-144.67;100.00
47522;BME280;32291;52.010;4.446;2022-11-23T03:33:38;77486.91;;;-144.67;100.00
47522;BME280;32291;52.010;4.446;2022-11-23T03:34:40;77495.47;;;-144.67;100.00
47522;BME280;32291;52.010;4.446;2022-11-23T03:35:42;77486.91;;;-144.67;100.00
47522;BME280;32291;52.010;4.446;2022-11-23T03:36:45;77489.03;;;-144.67;100.00
47522;BME280;32291;52.010;4.446;2022-11-23T03:37:47;77486.91;;;-144.67;100.00
47522;BME280;32291;52.010;4.446;2022-11-23T03:38:49;77491.19;;;-144.67;100.00
47522;BME280;32291;52.010;4.446;2022-11-23T03:39:52;77495.47;;;-144.67;100.00
47522;BME280;32291;52.010;4.446;2022-11-23T03:40:54;77486.91;;;-144.67;100.00
47522;BME280;32291;52.010;4.446;2022-11-23T03:41:56;77482.63;;;-144.67;100.00
47522;BME280;32291;52.010;4.446;2022-11-23T03:42:58;77484.75;;;-144.67;100.00
47522;BME280;32291;52.010;4.446;2022-11-23T03:44:00;77482.63;;;-144.67;100.00
47522;BME280;32291;52.010;4.446;2022-11-23T03:45:02;77478.34;;;-144.67;100.00
47522;BME280;32291;52.010;4.446;2022-11-23T03:46:04;77482.63;;;-144.67;100.00
47522;BME280;32291;52.010;4.446;2022-11-23T03:47:07;77486.91;;;-144.67;100.00
47522;BME280;32291;52.010;4.446;2022-11-23T03:48:09;77482.63;;;-144.67;100.00
47522;BME280;32291;52.010;4.446;2022-11-23T03:49:12;77476.19;;;-144.67;100.00
47522;BME280;32291;52.010;4.446;2022-11-23T03:50:13;77471.91;;;-144.67;100.00
47522;BME280;32291;52.010;4.446;2022-11-23T03:51:15;77474.06;;;-144.67;100.00
47522;BME280;32291;52.010;4.446;2022-11-23T03:52:17;77474.06;;;-144.67;100.00
47522;BME280;32291;52.010;4.446;2022-11-23T03:53:19;77474.06;;;-144.67;100.00
47522;BME280;32291;52.010;4.446;2022-11-23T03:54:21;77474.06;;;-144.67;100.00
47522;BME280;32291;52.010;4.446;2022-11-23T03:55:24;77474.06;;;-144.67;100.00
47522;BME280;32291;52.010;4.446;2022-11-23T03:56:27;77474.06;;;-144.67;100.00
47522;BME280;32291;52.010;4.446;2022-11-23T03:57:30;77467.63;;;-144.67;100.00
47522;BME280;32291;52.010;4.446;2022-11-23T03:58:32;77476.19;;;-144.67;100.00
47522;BME280;32291;52.010;4.446;2022-11-23T03:59:34;77478.34;;;-144.67;100.00
47522;BME280;32291;52.010;4.446;2022-11-23T04:00:36;77469.78;;;-144.67;100.00
47522;BME280;32291;52.010;4.446;2022-11-23T04:01:37;77454.78;;;-144.67;100.00
47522;BME280;32291;52.010;4.446;2022-11-23T04:02:41;77465.50;;;-144.67;100.00
47522;BME280;32291;52.010;4.446;2022-11-23T04:03:43;77459.06;;;-144.67;100.00
47522;BME280;32291;52.010;4.446;2022-11-23T04:04:45;77456.94;;;-144.67;100.00
47522;BME280;32291;52.010;4.446;2022-11-23T04:05:47;77454.78;;;-144.67;100.00
47522;BME280;32291;52.010;4.446;2022-11-23T04:06:49;77456.94;;;-144.67;100.00
47522;BME280;32291;52.010;4.446;2022-11-23T04:07:54;77452.66;;;-144.67;100.00
47522;BME280;32291;52.010;4.446;2022-11-23T04:08:56;77456.94;;;-144.67;100.00
47522;BME280;32291;52.010;4.446;2022-11-23T04:09:58;77454.78;;;-144.67;100.00
47522;BME280;32291;52.010;4.446;2022-11-23T04:11:00;77452.66;;;-144.67;100.00
47522;BME280;32291;52.010;4.446;2022-11-23T04:12:02;77459.06;;;-144.67;100.00
47522;BME280;32291;52.010;4.446;2022-11-23T04:13:05;77456.94;;;-144.67;100.00
47522;BME280;32291;52.010;4.446;2022-11-23T04:14:07;77459.06;;;-144.67;100.00
47522;BME280;32291;52.010;4.446;2022-11-23T04:15:10;77448.38;;;-144.67;100.00
47522;BME280;32291;52.010;4.446;2022-11-23T04:16:13;77448.38;;;-144.67;100.00
47522;BME280;32291;52.010;4.446;2022-11-23T04:17:15;77452.66;;;-144.67;100.00
47522;BME280;32291;52.010;4.446;2022-11-23T04:18:17;77446.22;;;-144.67;100.00
47522;BME280;32291;52.010;4.446;2022-11-23T04:19:19;77448.38;;;-144.67;100.00
47522;BME280;32291;52.010;4.446;2022-11-23T04:20:21;77444.09;;;-144.67;100.00
47522;BME280;32291;52.010;4.446;2022-11-23T04:21:23;77444.09;;;-144.67;100.00
47522;BME280;32291;52.010;4.446;2022-11-23T04:22:25;77448.38;;;-144.67;100.00
47522;BME280;32291;52.010;4.446;2022-11-23T04:23:27;77433.38;;;-144.67;100.00
47522;BME280;32291;52.010;4.446;2022-11-23T04:24:29;77435.53;;;-144.67;100.00
47522;BME280;32291;52.010;4.446;2022-11-23T04:25:31;77433.38;;;-144.67;100.00
47522;BME280;32291;52.010;4.446;2022-11-23T04:26:33;77424.81;;;-144.67;100.00
47522;BME280;32291;52.010;4.446;2022-11-23T04:27:35;77426.97;;;-144.67;100.00
47522;BME280;32291;52.010;4.446;2022-11-23T04:28:37;77435.53;;;-144.67;100.00
47522;BME280;32291;52.010;4.446;2022-11-23T04:29:39;77422.69;;;-144.67;100.00
47522;BME280;32291;52.010;4.446;2022-11-23T04:30:41;77426.97;;;-144.67;100.00
47522;BME280;32291;52.010;4.446;2022-11-23T04:31:44;77426.97;;;-144.67;100.00
47522;BME280;32291;52.010;4.446;2022-11-23T04:32:46;77429.09;;;-144.67;100.00
47522;BME280;32291;52.010;4.446;2022-11-23T04:33:48;77426.97;;;-144.67;100.00
47522;BME280;32291;52.010;4.446;2022-11-23T04:34:50;77426.97;;;-144.67;100.00
47522;BME280;32291;52.010;4.446;2022-11-23T04:35:52;77424.81;;;-144.67;100.00
47522;BME280;32291;52.010;4.446;2022-11-23T04:36:54;77424.81;;;-144.67;100.00
47522;BME280;32291;52.010;4.446;2022-11-23T04:37:56;77422.69;;;-144.67;100.00
47522;BME280;32291;52.010;4.446;2022-11-23T04:38:58;77426.97;;;-144.67;100.00
47522;BME280;32291;52.010;4.446;2022-11-23T04:40:00;77424.81;;;-144.67;100.00
47522;BME280;32291;52.010;4.446;2022-11-23T04:41:02;77431.25;;;-144.67;100.00
47522;BME280;32291;52.010;4.446;2022-11-23T04:42:04;77424.81;;;-144.67;100.00
47522;BME280;32291;52.010;4.446;2022-11-23T04:43:06;77418.41;;;-144.67;100.00
47522;BME280;32291;52.010;4.446;2022-11-23T04:44:10;77416.25;;;-144.67;100.00
47522;BME280;32291;52.010;4.446;2022-11-23T04:45:12;77422.69;;;-144.67;100.00
47522;BME280;32291;52.010;4.446;2022-11-23T04:46:15;77422.69;;;-144.67;100.00
47522;BME280;32291;52.010;4.446;2022-11-23T04:47:17;77424.81;;;-144.67;100.00
47522;BME280;32291;52.010;4.446;2022-11-23T04:48:19;77433.38;;;-144.67;100.00
47522;BME280;32291;52.010;4.446;2022-11-23T04:49:21;77431.25;;;-144.67;100.00
47522;BME280;32291;52.010;4.446;2022-11-23T04:50:23;77435.53;;;-144.67;100.00
47522;BME280;32291;52.010;4.446;2022-11-23T04:51:24;77426.97;;;-144.67;100.00
47522;BME280;32291;52.010;4.446;2022-11-23T04:52:27;77431.25;;;-144.67;100.00
47522;BME280;32291;52.010;4.446;2022-11-23T04:53:29;77422.69;;;-144.67;100.00
47522;BME280;32291;52.010;4.446;2022-11-23T04:54:31;77431.25;;;-144.67;100.00
47522;BME280;32291;52.010;4.446;2022-11-23T04:55:33;77435.53;;;-144.67;100.00
47522;BME280;32291;52.010;4.446;2022-11-23T04:56:35;77435.53;;;-144.67;100.00
47522;BME280;32291;52.010;4.446;2022-11-23T04:57:37;77439.81;;;-144.67;100.00
47522;BME280;32291;52.010;4.446;2022-11-23T04:58:39;77444.09;;;-144.67;100.00
47522;BME280;32291;52.010;4.446;2022-11-23T04:59:42;77439.81;;;-144.67;100.00
47522;BME280;32291;52.010;4.446;2022-11-23T05:00:43;77441.94;;;-144.67;100.00
47522;BME280;32291;52.010;4.446;2022-11-23T05:01:45;77435.53;;;-144.67;100.00
47522;BME280;32291;52.010;4.446;2022-11-23T05:02:47;77431.25;;;-144.67;100.00
47522;BME280;32291;52.010;4.446;2022-11-23T05:03:49;77439.81;;;-144.67;100.00
47522;BME280;32291;52.010;4.446;2022-11-23T05:04:52;77439.81;;;-144.67;100.00
47522;BME280;32291;52.010;4.446;2022-11-23T05:05:57;77444.09;;;-144.67;100.00
47522;BME280;32291;52.010;4.446;2022-11-23T05:06:59;77444.09;;;-144.67;100.00
47522;BME280;32291;52.010;4.446;2022-11-23T05:08:01;77448.38;;;-144.67;100.00
47522;BME280;32291;52.010;4.446;2022-11-23T05:09:03;77450.50;;;-144.67;100.00
47522;BME280;32291;52.010;4.446;2022-11-23T05:10:06;77444.09;;;-144.67;100.00
47522;BME280;32291;52.010;4.446;2022-11-23T05:11:08;77448.38;;;-144.67;100.00
47522;BME280;32291;52.010;4.446;2022-11-23T05:12:10;77448.38;;;-144.67;100.00
47522;BME280;32291;52.010;4.446;2022-11-23T05:13:12;77444.09;;;-144.67;100.00
47522;BME280;32291;52.010;4.446;2022-11-23T05:14:14;77441.94;;;-144.67;100.00
47522;BME280;32291;52.010;4.446;2022-11-23T05:15:16;77444.09;;;-144.67;100.00
47522;BME280;32291;52.010;4.446;2022-11-23T05:16:18;77444.09;;;-144.67;100.00
47522;BME280;32291;52.010;4.446;2022-11-23T05:17:21;77454.78;;;-144.67;100.00
47522;BME280;32291;52.010;4.446;2022-11-23T05:18:23;77448.38;;;-144.67;100.00
47522;BME280;32291;52.010;4.446;2022-11-23T05:19:24;77448.38;;;-144.67;100.00
47522;BME280;32291;52.010;4.446;2022-11-23T05:20:26;77452.66;;;-144.67;100.00
47522;BME280;32291;52.010;4.446;2022-11-23T05:21:28;77452.66;;;-144.67;100.00
47522;BME280;32291;52.010;4.446;2022-11-23T05:22:30;77448.38;;;-144.67;100.00
47522;BME280;32291;52.010;4.446;2022-11-23T05:23:33;77456.94;;;-144.67;100.00
47522;BME280;32291;52.010;4.446;2022-11-23T05:24:34;77456.94;;;-144.67;100.00
47522;BME280;32291;52.010;4.446;2022-11-23T05:25:36;77456.94;;;-144.67;100.00
47522;BME280;32291;52.010;4.446;2022-11-23T05:26:38;77456.94;;;-144.67;100.00
47522;BME280;32291;52.010;4.446;2022-11-23T05:27:40;77461.22;;;-144.67;100.00
47522;BME280;32291;52.010;4.446;2022-11-23T05:28:42;77459.06;;;-144.67;100.00